Time;durP1;ratioP1;P1;durP2;ratioP2;P2;SDS_P1;SDS_P2;PMS_P1;PMS_P2;Temp;Humidity;BMP_temperature;BMP_pressure;BME280_temperature;BME280_humidity;BME280_pressure;Samples;Min_cycle;Max_cycle;Signal;HPM_P1;HPM_P2
2022/07/12 00:01:17;;;;;;;5.20;2.40;;;24.00;49.20;;;;;;4985641;28;20026;-80
2022/07/12 00:03:43;;;;;;;5.57;2.40;;;24.10;49.30;;;;;;4982948;28;20120;-83
2022/07/12 00:06:08;;;;;;;5.15;2.40;;;24.00;49.00;;;;;;4994159;28;20118;-82
2022/07/12 00:08:34;;;;;;;5.63;2.55;;;24.00;49.30;;;;;;4994251;28;20066;-78
2022/07/12 00:11:01;;;;;;;4.35;2.08;;;23.90;49.20;;;;;;4993220;28;20029;-82
2022/07/12 00:13:26;;;;;;;3.83;2.03;;;23.80;49.30;;;;;;4992495;28;20030;-86
2022/07/12 00:15:52;;;;;;;5.43;2.08;;;23.70;49.30;;;;;;4992868;28;20024;-83
2022/07/12 00:18:18;;;;;;;3.35;1.88;;;23.70;49.10;;;;;;4993346;28;20081;-79
2022/07/12 00:20:44;;;;;;;3.42;1.90;;;23.70;49.10;;;;;;4994059;28;20109;-80
2022/07/12 00:23:09;;;;;;;3.70;1.83;;;23.70;48.80;;;;;;4989392;28;20081;-88
2022/07/12 00:25:35;;;;;;;3.95;2.00;;;23.70;48.70;;;;;;4977210;28;20035;-82
2022/07/12 00:28:01;;;;;;;4.00;2.00;;;23.70;48.70;;;;;;4982142;28;20548;-83
2022/07/12 00:30:26;;;;;;;4.95;2.13;;;23.70;48.50;;;;;;4990454;28;20034;-78
2022/07/12 00:32:52;;;;;;;3.83;1.92;;;23.80;48.40;;;;;;4983945;28;20018;-85
2022/07/12 00:35:18;;;;;;;4.15;1.92;;;23.90;48.40;;;;;;4974906;28;20470;-82
2022/07/12 00:37:43;;;;;;;4.32;2.22;;;23.80;48.40;;;;;;4989166;28;20381;-81
2022/07/12 00:40:10;;;;;;;3.90;1.75;;;23.90;48.30;;;;;;4992721;28;20052;-83
2022/07/12 00:42:38;;;;;;;3.58;1.77;;;24.00;48.30;;;;;;4981616;28;20027;-82
2022/07/12 00:45:06;;;;;;;3.20;1.80;;;24.00;48.30;;;;;;4991789;28;20088;-82
2022/07/12 00:47:37;;;;;;;3.45;1.95;;;24.00;48.40;;;;;;4987701;28;20033;-84
2022/07/12 00:50:17;;;;;;;4.20;2.00;;;23.90;49.30;;;;;;4976976;28;20029;-83
2022/07/12 00:52:44;;;;;;;3.90;2.17;;;23.90;50.00;;;;;;4980875;28;20500;-86
2022/07/12 00:55:12;;;;;;;4.57;2.20;;;23.70;50.60;;;;;;4975173;28;20054;-87
2022/07/12 00:57:39;;;;;;;3.83;2.20;;;23.70;50.90;;;;;;4979291;28;20433;-86
2022/07/12 01:00:08;;;;;;;4.63;2.28;;;23.70;51.20;;;;;;4992719;28;20034;-81
2022/07/12 01:02:35;;;;;;;3.83;2.15;;;23.70;51.20;;;;;;4980624;28;20023;-82
2022/07/12 01:05:03;;;;;;;4.53;2.13;;;23.60;51.20;;;;;;4974458;28;20027;-83
2022/07/12 01:07:29;;;;;;;3.78;2.20;;;23.50;51.50;;;;;;4982970;28;20026;-82
2022/07/12 01:09:56;;;;;;;4.88;2.22;;;23.20;51.80;;;;;;4991670;28;20077;-83
2022/07/12 01:12:23;;;;;;;5.22;2.67;;;23.20;51.60;;;;;;5008327;28;20030;-82
2022/07/12 01:14:49;;;;;;;3.80;2.30;;;23.10;51.50;;;;;;4993954;28;20034;-86
2022/07/12 01:17:25;;;;;;;3.42;2.45;;;23.00;51.40;;;;;;4996252;28;20118;-81
2022/07/12 01:19:54;;;;;;;4.75;2.40;;;22.90;51.40;;;;;;4989005;28;20106;-84
2022/07/12 01:22:25;;;;;;;6.13;2.70;;;22.80;51.50;;;;;;4986905;28;20478;-82
2022/07/12 01:24:50;;;;;;;3.50;2.10;;;22.90;51.70;;;;;;4998162;28;20018;-83
2022/07/12 01:27:17;;;;;;;3.80;2.38;;;22.80;51.80;;;;;;4992208;28;20034;-84
2022/07/12 01:29:42;;;;;;;4.15;2.05;;;22.80;52.20;;;;;;4995981;28;20600;-81
2022/07/12 01:32:24;;;;;;;5.97;2.25;;;23.00;52.30;;;;;;4996059;28;20022;-82
2022/07/12 01:34:58;;;;;;;3.70;2.15;;;23.00;52.40;;;;;;4996072;28;20366;-87
2022/07/12 01:37:28;;;;;;;4.00;2.40;;;22.90;52.50;;;;;;4997346;28;20080;-81
2022/07/12 01:39:55;;;;;;;5.10;2.58;;;22.90;52.60;;;;;;4996284;28;20030;-85
2022/07/12 01:42:23;;;;;;;6.05;2.97;;;23.00;52.50;;;;;;4997216;28;20031;-81
2022/07/12 01:44:50;;;;;;;4.57;2.38;;;23.00;52.50;;;;;;4997121;28;20022;-78
2022/07/12 01:47:23;;;;;;;4.35;2.72;;;23.00;52.40;;;;;;4994465;28;20437;-81
2022/07/12 01:49:48;;;;;;;3.50;2.63;;;23.00;52.20;;;;;;4980292;28;20466;-77
2022/07/12 01:52:15;;;;;;;4.38;2.42;;;22.90;52.30;;;;;;4996279;28;20038;-83
2022/07/12 01:54:42;;;;;;;5.07;2.42;;;22.80;52.90;;;;;;4979588;28;20051;-80
2022/07/12 01:57:08;;;;;;;8.05;2.58;;;22.60;53.50;;;;;;4995409;28;20026;-83
2022/07/12 01:59:34;;;;;;;6.70;2.40;;;22.50;53.70;;;;;;4994437;28;20504;-81
2022/07/12 02:02:03;;;;;;;4.00;2.40;;;22.60;53.50;;;;;;4995561;28;20030;-81
2022/07/12 02:04:29;;;;;;;4.90;2.22;;;22.70;53.30;;;;;;4995443;28;20450;-85
2022/07/12 02:06:55;;;;;;;4.25;2.30;;;22.70;53.20;;;;;;4984047;28;20062;-86
2022/07/12 02:09:21;;;;;;;4.60;2.30;;;22.60;53.10;;;;;;4978217;28;20035;-81
2022/07/12 02:11:49;;;;;;;5.25;2.08;;;22.70;53.00;;;;;;4981963;28;20519;-83
2022/07/12 02:14:16;;;;;;;3.33;2.00;;;22.80;52.80;;;;;;4997139;28;20026;-83
2022/07/12 02:16:43;;;;;;;4.57;2.00;;;22.90;53.00;;;;;;4994317;28;20081;-80
2022/07/12 02:19:10;;;;;;;5.35;2.33;;;23.00;52.60;;;;;;4993487;28;20058;-82
2022/07/12 02:21:36;;;;;;;4.00;2.20;;;23.10;52.30;;;;;;4993446;28;20117;-82
2022/07/12 02:24:03;;;;;;;4.00;2.20;;;23.10;52.10;;;;;;4995922;28;20027;-80
2022/07/12 02:26:28;;;;;;;4.60;2.10;;;23.10;52.20;;;;;;4991219;28;20030;-79
2022/07/12 02:28:54;;;;;;;5.00;2.35;;;23.00;52.00;;;;;;4995806;28;20085;-80
2022/07/12 02:31:20;;;;;;;3.95;2.30;;;22.80;52.30;;;;;;4993074;28;20026;-81
2022/07/12 02:33:46;;;;;;;5.60;2.30;;;22.90;52.70;;;;;;4995586;28;20041;-82
2022/07/12 02:36:12;;;;;;;4.72;2.33;;;22.80;52.70;;;;;;4992727;28;20034;-82
2022/07/12 02:38:37;;;;;;;6.40;2.30;;;22.90;52.70;;;;;;4977042;28;20034;-83
2022/07/12 02:41:03;;;;;;;3.60;2.00;;;22.90;52.50;;;;;;4981682;28;20027;-81
2022/07/12 02:43:31;;;;;;;4.30;2.30;;;22.80;52.60;;;;;;4986628;28;20109;-84
2022/07/12 02:46:23;;;;;;;5.03;2.80;;;22.80;52.50;;;;;;4993993;28;20038;-83
2022/07/12 02:48:49;;;;;;;3.80;2.33;;;22.70;52.80;;;;;;4977317;28;20034;-81
2022/07/12 02:51:14;;;;;;;4.40;2.45;;;22.60;53.00;;;;;;4988972;28;20080;-80
2022/07/12 02:53:40;;;;;;;3.60;2.10;;;22.70;53.10;;;;;;4993701;28;20492;-84
2022/07/12 02:56:06;;;;;;;4.75;2.40;;;22.80;53.20;;;;;;4993870;28;20058;-83
2022/07/12 02:58:33;;;;;;;4.28;2.30;;;22.80;52.70;;;;;;4989159;28;20429;-79
2022/07/12 03:00:59;;;;;;;3.00;2.03;;;22.80;52.50;;;;;;4986876;28;20030;-80
2022/07/12 03:03:25;;;;;;;3.97;1.98;;;22.90;52.20;;;;;;4985403;28;20084;-84
2022/07/12 03:05:50;;;;;;;3.00;2.00;;;22.80;52.40;;;;;;4994783;28;20018;-85
2022/07/12 03:08:16;;;;;;;4.22;2.08;;;22.70;52.60;;;;;;4992366;28;20026;-80
2022/07/12 03:10:42;;;;;;;8.32;3.08;;;22.70;53.10;;;;;;4994300;28;20030;-82
2022/07/12 03:13:09;;;;;;;4.05;1.90;;;22.80;52.40;;;;;;4993879;28;20041;-81
2022/07/12 03:15:35;;;;;;;4.00;2.28;;;22.80;52.50;;;;;;4995327;28;20022;-84
2022/07/12 03:18:01;;;;;;;5.05;2.30;;;22.80;52.50;;;;;;4993757;28;20038;-80
2022/07/12 03:20:28;;;;;;;3.70;2.10;;;22.90;52.60;;;;;;4993615;28;20030;-80
2022/07/12 03:22:54;;;;;;;4.97;2.20;;;22.90;52.40;;;;;;4993593;28;20018;-81
2022/07/12 03:25:27;;;;;;;3.85;2.22;;;23.00;52.20;;;;;;4993228;28;20096;-83
2022/07/12 03:27:54;;;;;;;4.18;2.10;;;22.90;52.20;;;;;;4991388;28;20118;-82
2022/07/12 03:30:20;;;;;;;3.50;2.15;;;22.90;52.30;;;;;;4985747;28;20078;-81
2022/07/12 03:32:45;;;;;;;3.58;2.03;;;22.80;52.50;;;;;;4993357;28;20022;-82
2022/07/12 03:35:11;;;;;;;4.15;2.47;;;22.70;52.50;;;;;;4989843;28;20027;-84
2022/07/12 03:37:49;;;;;;;3.90;2.08;;;22.70;52.30;;;;;;4991202;28;20026;-85
2022/07/12 03:40:16;;;;;;;6.57;2.60;;;22.70;52.70;;;;;;4992806;28;20039;-83
2022/07/12 03:42:43;;;;;;;5.03;2.30;;;22.60;53.20;;;;;;4979894;28;20061;-86
2022/07/12 03:45:10;;;;;;;6.38;2.28;;;22.40;53.50;;;;;;4978405;28;20030;-84
2022/07/12 03:47:37;;;;;;;4.43;2.20;;;22.40;53.40;;;;;;4976678;28;20027;-78
2022/07/12 03:50:15;;;;;;;4.07;2.05;;;22.30;53.50;;;;;;4985275;28;20073;-84
2022/07/12 03:52:42;;;;;;;3.85;2.60;;;22.30;53.40;;;;;;4990924;28;20093;-81
2022/07/12 03:55:10;;;;;;;4.20;2.40;;;22.40;53.30;;;;;;4993112;28;20019;-83
2022/07/12 03:57:36;;;;;;;3.78;2.20;;;22.50;53.20;;;;;;4994032;28;20030;-88
2022/07/12 04:00:11;;;;;;;4.10;2.45;;;22.40;52.90;;;;;;4994114;28;20034;-84
2022/07/12 04:02:39;;;;;;;4.63;2.13;;;22.40;52.90;;;;;;4992600;28;20030;-79
2022/07/12 04:05:07;;;;;;;5.38;2.42;;;22.40;53.00;;;;;;4993199;28;20033;-86
2022/07/12 04:07:32;;;;;;;4.63;2.35;;;22.30;52.90;;;;;;4994105;28;20027;-81
2022/07/12 04:09:58;;;;;;;4.43;2.22;;;22.40;53.00;;;;;;4992536;28;20397;-77
2022/07/12 04:12:24;;;;;;;3.45;1.90;;;22.60;52.80;;;;;;5006350;28;20081;-80
2022/07/12 04:14:49;;;;;;;3.58;1.70;;;22.90;52.00;;;;;;4992879;28;20034;-83
2022/07/12 04:17:17;;;;;;;3.10;1.80;;;23.00;51.80;;;;;;4983887;28;20031;-79
2022/07/12 04:19:43;;;;;;;3.47;1.60;;;23.00;51.10;;;;;;4975260;28;20129;-83
2022/07/12 04:22:08;;;;;;;3.70;1.60;;;23.00;51.10;;;;;;4992910;28;20120;-78
2022/07/12 04:24:34;;;;;;;4.60;1.67;;;22.90;51.20;;;;;;4992147;28;20026;-79
2022/07/12 04:27:00;;;;;;;3.20;1.60;;;23.00;50.60;;;;;;4986671;28;20069;-79
2022/07/12 04:29:25;;;;;;;2.92;1.70;;;23.10;50.50;;;;;;4979558;28;20073;-78
2022/07/12 04:31:51;;;;;;;3.90;1.77;;;23.10;50.50;;;;;;4991610;28;20034;-81
2022/07/12 04:34:17;;;;;;;3.88;1.80;;;23.20;50.20;;;;;;4990172;28;20030;-83
2022/07/12 04:36:47;;;;;;;3.58;1.58;;;23.30;50.00;;;;;;4979838;28;20027;-83
2022/07/12 04:39:13;;;;;;;4.15;1.55;;;23.50;50.20;;;;;;4992587;28;20049;-80
2022/07/12 04:41:39;;;;;;;3.65;1.70;;;23.40;50.10;;;;;;4988551;28;20030;-84
2022/07/12 04:44:06;;;;;;;5.55;1.60;;;23.50;50.20;;;;;;4977863;28;20482;-81
2022/07/12 04:46:32;;;;;;;4.22;1.70;;;23.60;49.90;;;;;;4989716;28;20026;-80
2022/07/12 04:48:58;;;;;;;3.10;1.50;;;23.70;49.60;;;;;;4974525;28;20023;-80
2022/07/12 04:51:24;;;;;;;3.63;1.70;;;23.70;49.80;;;;;;4982646;28;20026;-77
2022/07/12 04:53:50;;;;;;;4.80;1.52;;;23.90;49.40;;;;;;4992259;28;20027;-80
2022/07/12 04:56:15;;;;;;;5.25;1.60;;;23.90;49.50;;;;;;4992476;28;20366;-79
2022/07/12 04:58:41;;;;;;;3.72;1.90;;;24.00;49.30;;;;;;4991080;28;20141;-79
2022/07/12 05:01:08;;;;;;;3.30;1.60;;;24.00;49.40;;;;;;4993367;28;20042;-86
2022/07/12 05:03:34;;;;;;;8.82;1.80;;;24.10;49.60;;;;;;4992780;28;20034;-83
2022/07/12 05:06:00;;;;;;;3.53;1.77;;;24.10;49.20;;;;;;4992108;28;20046;-85
2022/07/12 05:08:26;;;;;;;4.35;1.67;;;24.00;48.80;;;;;;4991177;28;20093;-87
2022/07/12 05:10:54;;;;;;;3.72;1.60;;;24.10;49.60;;;;;;5008780;28;20466;-94
2022/07/12 05:13:20;;;;;;;4.22;1.70;;;24.30;49.30;;;;;;4992193;28;20030;-89
2022/07/12 05:15:46;;;;;;;3.20;1.70;;;24.50;48.90;;;;;;4992238;28;20030;-81
2022/07/12 05:18:20;;;;;;;14.13;2.03;;;24.60;49.30;;;;;;4992246;28;20041;-80
2022/07/12 05:20:46;;;;;;;4.03;1.70;;;24.60;48.70;;;;;;4992322;28;20039;-81
2022/07/12 05:23:12;;;;;;;5.03;1.65;;;24.70;48.70;;;;;;4991452;28;20164;-82
2022/07/12 05:25:37;;;;;;;3.13;1.73;;;24.80;49.50;;;;;;4979707;28;20030;-85
2022/07/12 05:28:03;;;;;;;4.15;1.80;;;25.00;48.50;;;;;;4992889;28;20142;-80
2022/07/12 05:30:29;;;;;;;4.95;1.70;;;25.10;48.30;;;;;;4990398;28;20045;-86
2022/07/12 05:32:55;;;;;;;4.85;1.88;;;25.20;48.90;;;;;;4991659;28;20035;-83
2022/07/12 05:35:21;;;;;;;4.18;1.95;;;25.00;48.60;;;;;;4986953;28;20030;-83
2022/07/12 05:37:46;;;;;;;4.55;1.73;;;25.00;48.50;;;;;;4992212;28;20027;-80
2022/07/12 05:40:12;;;;;;;3.58;1.70;;;25.10;48.60;;;;;;4989646;28;20498;-82
2022/07/12 05:42:38;;;;;;;3.58;1.80;;;24.90;48.70;;;;;;4980222;28;20114;-81
2022/07/12 05:45:05;;;;;;;5.22;1.70;;;25.00;48.90;;;;;;4978434;28;20113;-81
2022/07/12 05:47:31;;;;;;;4.30;1.70;;;25.00;48.60;;;;;;4980573;28;20054;-88
2022/07/12 05:49:56;;;;;;;3.03;1.70;;;24.90;49.00;;;;;;4979448;28;20080;-79
2022/07/12 05:55:06;;;;;;;5.35;1.80;;;24.90;48.80;;;;;;4979858;28;20543;-78
2022/07/12 05:57:32;;;;;;;6.30;1.83;;;24.90;48.50;;;;;;4983949;28;20023;-78
2022/07/12 05:59:58;;;;;;;3.58;1.88;;;25.00;49.00;;;;;;4982029;28;20034;-82
2022/07/12 06:02:24;;;;;;;4.57;1.70;;;25.10;49.00;;;;;;4988849;28;20018;-75
2022/07/12 06:04:50;;;;;;;3.08;1.70;;;25.20;48.60;;;;;;4985367;28;20022;-79
2022/07/12 06:07:16;;;;;;;3.40;1.50;;;25.00;48.70;;;;;;4986812;28;20031;-79
2022/07/12 06:09:42;;;;;;;4.85;2.20;;;25.10;48.30;;;;;;5009801;28;20031;-80
2022/07/12 06:12:08;;;;;;;2.65;1.50;;;25.30;48.70;;;;;;4995944;28;20031;-83
2022/07/12 06:14:33;;;;;;;3.22;1.70;;;24.80;48.70;;;;;;4989810;28;20027;-78
2022/07/12 06:16:59;;;;;;;6.53;1.50;;;25.00;48.80;;;;;;4997250;28;20033;-89
2022/07/12 06:19:26;;;;;;;4.80;1.67;;;25.20;48.20;;;;;;4995028;28;20030;-86
2022/07/12 06:21:52;;;;;;;4.10;1.50;;;25.50;48.90;;;;;;4996099;28;20037;-83
2022/07/12 06:24:18;;;;;;;6.45;1.45;;;25.70;48.50;;;;;;4988716;28;20019;-79
2022/07/12 06:26:43;;;;;;;6.53;1.67;;;26.20;48.40;;;;;;4995146;28;20022;-88
2022/07/12 06:29:09;;;;;;;3.55;1.42;;;26.20;47.70;;;;;;4995564;28;20030;-84
2022/07/12 06:31:35;;;;;;;3.92;1.40;;;26.10;47.70;;;;;;4992885;28;20027;-80
2022/07/12 06:34:00;;;;;;;3.38;1.40;;;26.10;47.20;;;;;;4981308;28;20467;-80
2022/07/12 06:36:26;;;;;;;5.40;1.70;;;26.30;47.40;;;;;;4990347;28;20461;-86
2022/07/12 06:38:52;;;;;;;3.42;1.40;;;26.50;47.10;;;;;;4990764;28;20037;-85
2022/07/12 06:41:17;;;;;;;2.90;1.38;;;26.60;48.20;;;;;;4991945;28;20026;-81
2022/07/12 06:43:43;;;;;;;3.22;1.30;;;26.80;46.50;;;;;;4993853;28;20049;-84
2022/07/12 06:46:09;;;;;;;4.35;1.50;;;26.80;46.60;;;;;;4987384;28;20037;-81
2022/07/12 06:48:34;;;;;;;3.17;1.40;;;26.60;46.50;;;;;;4995647;28;20057;-89
2022/07/12 06:51:00;;;;;;;2.88;1.33;;;26.50;47.00;;;;;;4994121;28;20022;-86
2022/07/12 06:53:26;;;;;;;2.53;1.30;;;26.90;47.00;;;;;;4996411;28;20385;-82
2022/07/12 06:55:51;;;;;;;3.47;1.48;;;27.30;45.60;;;;;;4993890;28;20025;-84
2022/07/12 06:58:17;;;;;;;3.00;1.30;;;27.50;45.80;;;;;;4996091;28;20102;-83
2022/07/12 07:00:43;;;;;;;4.68;1.30;;;27.40;45.50;;;;;;4993916;28;20034;-81
2022/07/12 07:03:09;;;;;;;3.45;1.40;;;27.20;45.40;;;;;;4994303;28;20034;-78
2022/07/12 07:05:38;;;;;;;3.97;1.50;;;27.30;45.90;;;;;;4975255;28;20063;-82
2022/07/12 07:08:04;;;;;;;3.28;1.30;;;27.70;45.70;;;;;;5005933;28;20080;-77
2022/07/12 07:10:29;;;;;;;3.22;1.40;;;28.00;45.40;;;;;;4993697;28;20142;-81
2022/07/12 07:12:55;;;;;;;2.33;1.30;;;27.70;45.20;;;;;;4991181;28;20588;-84
2022/07/12 07:15:21;;;;;;;3.65;1.50;;;27.80;45.50;;;;;;5003262;28;20045;-82
2022/07/12 07:17:47;;;;;;;3.60;2.00;;;27.90;45.50;;;;;;4994088;28;20073;-78
2022/07/12 07:20:13;;;;;;;3.15;1.42;;;27.90;45.30;;;;;;4991460;28;20053;-81
2022/07/12 07:22:39;;;;;;;6.43;1.50;;;28.10;45.40;;;;;;4985732;28;20106;-79
2022/07/12 07:25:09;;;;;;;5.85;1.67;;;28.60;45.20;;;;;;4993230;28;20121;-88
2022/07/12 07:27:34;;;;;;;4.20;1.52;;;28.60;45.20;;;;;;4994213;28;20480;-88
2022/07/12 07:32:45;;;;;;;5.95;1.90;;;28.40;45.20;;;;;;4982672;28;20042;-90
2022/07/12 07:35:11;;;;;;;4.75;1.50;;;28.00;45.30;;;;;;4995574;28;20027;-79
2022/07/12 07:37:37;;;;;;;3.88;1.38;;;28.20;46.20;;;;;;4993471;28;20049;-80
2022/07/12 07:40:03;;;;;;;4.65;1.50;;;28.50;46.20;;;;;;4989948;28;20069;-83
2022/07/12 07:42:29;;;;;;;5.10;1.73;;;28.50;45.40;;;;;;4992852;28;20441;-87
2022/07/12 07:44:54;;;;;;;3.72;1.50;;;28.50;45.20;;;;;;4992794;28;20026;-86
2022/07/12 07:47:20;;;;;;;5.28;1.60;;;28.60;44.80;;;;;;4992424;28;20028;-81
2022/07/12 07:49:46;;;;;;;4.85;1.50;;;28.40;44.90;;;;;;4993466;28;20030;-81
2022/07/12 07:52:11;;;;;;;4.30;1.60;;;28.20;45.20;;;;;;4993873;28;20062;-80
2022/07/12 07:54:37;;;;;;;4.70;1.67;;;28.20;44.40;;;;;;4994724;28;20077;-78
2022/07/12 07:57:03;;;;;;;4.07;1.60;;;28.20;44.90;;;;;;4994517;28;20367;-79
2022/07/12 07:59:29;;;;;;;3.85;1.65;;;28.20;43.90;;;;;;4994335;28;20360;-78
2022/07/12 08:01:54;;;;;;;7.50;1.55;;;27.80;44.90;;;;;;4994063;28;20521;-84
2022/07/12 08:04:21;;;;;;;3.33;1.60;;;28.10;45.30;;;;;;4993142;28;20105;-87
2022/07/12 08:06:49;;;;;;;4.57;1.60;;;28.40;44.30;;;;;;4994747;28;20033;-89
2022/07/12 08:09:14;;;;;;;3.72;1.80;;;28.50;44.40;;;;;;4994881;28;20483;-78
2022/07/12 08:11:41;;;;;;;3.63;1.52;;;28.20;44.00;;;;;;4994406;28;20085;-83
2022/07/12 08:14:08;;;;;;;3.17;1.38;;;28.10;44.20;;;;;;4994320;28;20026;-78
2022/07/12 08:16:34;;;;;;;3.90;1.58;;;28.20;44.90;;;;;;4994506;28;20458;-78
2022/07/12 08:19:01;;;;;;;4.90;1.58;;;28.40;45.10;;;;;;4994165;28;20044;-78
2022/07/12 08:21:27;;;;;;;5.07;1.80;;;28.60;45.50;;;;;;4994263;28;20014;-81
2022/07/12 08:23:53;;;;;;;4.00;1.50;;;28.50;44.70;;;;;;4993586;28;20049;-82
2022/07/12 08:26:19;;;;;;;4.55;1.52;;;28.40;44.60;;;;;;4992861;28;20644;-79
2022/07/12 08:28:45;;;;;;;4.45;1.65;;;28.60;44.50;;;;;;4992537;28;20373;-80
2022/07/12 08:31:13;;;;;;;4.70;1.70;;;29.00;44.70;;;;;;4993068;28;20022;-87
2022/07/12 08:33:40;;;;;;;4.40;1.77;;;28.90;44.60;;;;;;4993287;28;20026;-82
2022/07/12 08:36:08;;;;;;;4.05;1.60;;;28.70;44.90;;;;;;4993282;28;20026;-92
2022/07/12 08:38:37;;;;;;;5.53;1.60;;;28.70;44.50;;;;;;4993304;28;20401;-82
2022/07/12 08:41:06;;;;;;;6.15;1.67;;;28.80;45.50;;;;;;4993966;28;20018;-79
2022/07/12 08:43:34;;;;;;;7.43;2.35;;;28.60;44.00;;;;;;4994267;28;20058;-85
2022/07/12 08:46:08;;;;;;;3.58;2.15;;;28.40;44.80;;;;;;4993024;28;20022;-87
2022/07/12 08:48:38;;;;;;;4.40;1.88;;;28.40;45.40;;;;;;4993037;28;20385;-81
2022/07/12 08:51:06;;;;;;;4.15;1.60;;;28.40;45.20;;;;;;4994246;28;20023;-86
2022/07/12 08:53:32;;;;;;;5.93;1.83;;;28.10;44.80;;;;;;4995080;28;20035;-92
2022/07/12 08:55:58;;;;;;;6.75;1.58;;;28.00;45.60;;;;;;4994169;28;20026;-84
2022/07/12 08:58:24;;;;;;;3.42;1.80;;;28.10;45.10;;;;;;4994091;28;20046;-80
2022/07/12 09:00:50;;;;;;;4.00;1.60;;;28.40;45.20;;;;;;4994148;28;20038;-90
2022/07/12 09:03:17;;;;;;;3.38;1.60;;;28.80;45.80;;;;;;4994963;28;20022;-90
2022/07/12 09:05:56;;;;;;;3.83;1.50;;;29.30;45.60;;;;;;4994073;28;20481;-89
2022/07/12 09:08:33;;;;;;;4.07;1.40;;;30.00;45.20;;;;;;4994015;28;20405;-87
2022/07/12 09:11:16;;;;;;;3.97;1.33;;;30.30;44.00;;;;;;4993575;28;20049;-88
2022/07/12 09:13:53;;;;;;;3.50;1.30;;;30.20;42.30;;;;;;4993471;28;20048;-78
2022/07/12 09:16:21;;;;;;;3.35;1.30;;;30.00;42.10;;;;;;4992758;28;20027;-80
2022/07/12 09:18:48;;;;;;;6.07;1.40;;;29.80;41.90;;;;;;4992968;28;20038;-78
2022/07/12 09:21:27;;;;;;;4.28;1.30;;;29.70;42.60;;;;;;4992271;28;20030;-80
2022/07/12 09:23:57;;;;;;;3.40;1.40;;;29.50;42.30;;;;;;4994118;28;20031;-79
2022/07/12 09:26:35;;;;;;;2.88;1.40;;;29.50;42.40;;;;;;4992462;28;20038;-86
2022/07/12 09:29:11;;;;;;;4.75;1.30;;;29.40;42.50;;;;;;4992557;28;20367;-83
2022/07/12 09:37:14;;;;;;;6.22;1.58;;;28.50;42.90;;;;;;4997738;28;20045;-80
2022/07/12 09:39:41;;;;;;;3.72;1.30;;;28.10;42.80;;;;;;4996177;28;20038;-87
2022/07/12 09:42:12;;;;;;;3.03;1.17;;;28.30;42.40;;;;;;4995872;28;20026;-76
2022/07/12 09:44:42;;;;;;;1.98;1.20;;;27.90;42.20;;;;;;4995871;28;20034;-78
2022/07/12 09:47:13;;;;;;;5.15;1.38;;;27.90;43.70;;;;;;4997391;28;20097;-80
2022/07/12 09:49:43;;;;;;;3.25;1.30;;;28.40;42.90;;;;;;4997039;28;20030;-86
2022/07/12 09:52:24;;;;;;;2.53;1.20;;;29.10;42.70;;;;;;4995933;28;20026;-78
2022/07/12 09:54:52;;;;;;;3.67;1.20;;;29.90;42.20;;;;;;4995494;28;20089;-79
2022/07/12 09:57:28;;;;;;;3.95;1.30;;;30.00;41.50;;;;;;4997226;28;20086;-84
2022/07/12 09:59:54;;;;;;;2.75;1.10;;;29.80;40.70;;;;;;4995779;28;20129;-80
2022/07/12 10:02:22;;;;;;;2.88;1.17;;;30.10;41.40;;;;;;4996658;28;20438;-79
2022/07/12 10:04:48;;;;;;;4.30;1.20;;;29.90;41.30;;;;;;4995514;28;20035;-83
2022/07/12 10:07:15;;;;;;;2.83;1.25;;;29.70;40.40;;;;;;4996812;28;20428;-81
2022/07/12 10:09:46;;;;;;;4.00;1.17;;;29.60;40.80;;;;;;4995480;28;20050;-80
2022/07/12 10:12:18;;;;;;;2.60;1.13;;;29.50;41.30;;;;;;4997148;28;20068;-80
2022/07/12 10:14:45;;;;;;;6.13;1.50;;;29.80;40.60;;;;;;4995503;28;20093;-77
2022/07/12 10:17:12;;;;;;;2.70;1.20;;;29.40;40.40;;;;;;4995355;28;20025;-78
2022/07/12 10:19:39;;;;;;;4.10;1.30;;;28.70;40.40;;;;;;4995181;28;20054;-81
2022/07/12 10:22:07;;;;;;;2.65;1.10;;;28.60;42.20;;;;;;4996287;28;20378;-82
2022/07/12 10:24:33;;;;;;;2.53;1.17;;;28.90;40.90;;;;;;4996493;28;20486;-78
2022/07/12 10:27:13;;;;;;;4.75;1.20;;;29.10;40.30;;;;;;4996288;28;20028;-80
2022/07/12 10:29:43;;;;;;;2.42;1.10;;;29.10;39.90;;;;;;4995403;28;20054;-78
2022/07/12 10:32:32;;;;;;;2.97;1.42;;;29.00;40.10;;;;;;4995531;28;20497;-80
2022/07/12 10:35:16;;;;;;;3.38;1.30;;;28.80;39.80;;;;;;4995007;28;20618;-79
2022/07/12 10:38:22;;;;;;;3.25;1.27;;;28.60;40.10;;;;;;4996271;28;20080;-80
2022/07/12 10:40:49;;;;;;;3.00;1.20;;;28.50;40.50;;;;;;4995685;28;20046;-81
2022/07/12 10:43:17;;;;;;;1.95;1.20;;;29.00;40.60;;;;;;5011020;28;20485;-80
2022/07/12 10:45:44;;;;;;;2.53;1.13;;;29.10;40.70;;;;;;4994732;28;20045;-89
2022/07/12 10:48:12;;;;;;;2.53;1.30;;;28.90;40.40;;;;;;4995909;28;20493;-81
2022/07/12 10:50:55;;;;;;;5.25;1.80;;;28.60;40.30;;;;;;4994272;28;20026;-77
2022/07/12 10:53:23;;;;;;;4.05;1.20;;;28.50;40.90;;;;;;4996193;28;20030;-78
2022/07/12 10:56:07;;;;;;;4.40;1.30;;;28.40;41.30;;;;;;4994894;28;20068;-82
2022/07/12 10:58:44;;;;;;;5.00;1.40;;;28.60;41.50;;;;;;4994582;28;20070;-84
2022/07/12 11:01:14;;;;;;;5.25;1.30;;;28.70;41.40;;;;;;4995859;28;20101;-85
2022/07/12 11:03:53;;;;;;;1.88;1.15;;;29.30;42.40;;;;;;4994728;28;20023;-80
2022/07/12 11:06:24;;;;;;;2.45;1.20;;;29.50;40.10;;;;;;4994298;28;20030;-84
2022/07/12 11:09:00;;;;;;;3.75;1.23;;;29.30;39.80;;;;;;4994218;28;20488;-84
2022/07/12 11:11:28;;;;;;;3.40;1.20;;;29.10;40.30;;;;;;4994140;28;20115;-82
2022/07/12 11:13:54;;;;;;;3.35;1.25;;;28.90;40.00;;;;;;4994314;28;20608;-78
2022/07/12 11:16:20;;;;;;;2.63;1.10;;;29.20;40.80;;;;;;4995435;28;20045;-79
2022/07/12 11:18:46;;;;;;;2.25;1.20;;;29.60;40.50;;;;;;4994149;28;20034;-78
2022/07/12 11:21:13;;;;;;;1.92;1.17;;;29.70;39.90;;;;;;4995111;28;20524;-82
2022/07/12 11:23:40;;;;;;;3.10;1.20;;;29.80;38.70;;;;;;4993982;28;20033;-80
2022/07/12 11:26:07;;;;;;;4.75;1.30;;;30.00;39.60;;;;;;4994074;28;20026;-79
2022/07/12 11:28:33;;;;;;;2.47;1.15;;;29.50;38.70;;;;;;4993871;28;20031;-77
2022/07/12 11:31:07;;;;;;;4.18;1.20;;;28.90;39.70;;;;;;4995322;28;20038;-80
2022/07/12 11:33:36;;;;;;;4.22;1.40;;;28.70;39.90;;;;;;4994157;28;20496;-79
2022/07/12 11:36:04;;;;;;;3.08;1.10;;;28.70;39.10;;;;;;4995080;28;20037;-76
2022/07/12 11:38:30;;;;;;;2.78;1.13;;;28.80;39.60;;;;;;4994567;28;20072;-81
2022/07/12 11:40:58;;;;;;;2.97;1.20;;;29.20;39.30;;;;;;4994980;28;20550;-78
2022/07/12 11:43:25;;;;;;;5.00;1.13;;;29.70;39.50;;;;;;4995020;28;20065;-86
2022/07/12 11:45:51;;;;;;;4.60;1.30;;;29.60;38.30;;;;;;4993844;28;20022;-79
2022/07/12 11:48:18;;;;;;;4.22;1.33;;;29.50;39.00;;;;;;4994787;28;20041;-78
2022/07/12 11:50:44;;;;;;;1.95;1.20;;;29.30;38.90;;;;;;4993607;28;20489;-78
2022/07/12 11:53:23;;;;;;;4.95;1.27;;;29.20;38.90;;;;;;4993496;28;20037;-85
2022/07/12 11:55:51;;;;;;;3.20;1.08;;;29.20;39.00;;;;;;4994849;28;20470;-81
2022/07/12 11:58:18;;;;;;;2.60;1.20;;;29.40;39.50;;;;;;4994167;28;20085;-79
2022/07/12 12:00:45;;;;;;;3.05;1.25;;;29.80;39.70;;;;;;4994544;28;20022;-82
2022/07/12 12:03:11;;;;;;;6.45;1.80;;;30.20;38.40;;;;;;4995056;28;20026;-84
2022/07/12 12:05:38;;;;;;;3.78;1.30;;;30.20;39.40;;;;;;4993306;28;20042;-78
2022/07/12 12:08:09;;;;;;;3.13;1.10;;;30.50;38.30;;;;;;4993372;28;20030;-80
2022/07/12 12:10:35;;;;;;;2.72;1.20;;;30.60;37.70;;;;;;4995103;28;20109;-78
2022/07/12 12:13:02;;;;;;;3.72;1.25;;;30.60;38.10;;;;;;4995036;28;20026;-82
2022/07/12 12:15:31;;;;;;;2.90;1.65;;;30.40;38.60;;;;;;4994595;28;20386;-82
2022/07/12 12:18:05;;;;;;;2.08;1.55;;;29.90;37.60;;;;;;4992769;28;20027;-77
2022/07/12 12:20:38;;;;;;;2.08;1.20;;;30.10;37.90;;;;;;4992899;28;20544;-76
2022/07/12 12:23:17;;;;;;;1.73;1.20;;;30.20;38.00;;;;;;4994247;28;20039;-83
2022/07/12 12:25:43;;;;;;;2.90;1.40;;;30.50;37.90;;;;;;4994622;28;20039;-81
2022/07/12 12:28:09;;;;;;;2.60;1.33;;;30.50;37.70;;;;;;4993027;28;20026;-79
2022/07/12 12:30:47;;;;;;;3.08;1.20;;;30.40;38.10;;;;;;4992603;28;20076;-80
2022/07/12 12:33:32;;;;;;;2.58;1.13;;;30.40;37.40;;;;;;4992923;28;20039;-78
2022/07/12 12:36:16;;;;;;;4.97;1.50;;;30.00;38.10;;;;;;4993213;28;20089;-84
2022/07/12 12:38:42;;;;;;;2.05;1.23;;;30.00;38.60;;;;;;4993429;28;20126;-84
2022/07/12 12:41:09;;;;;;;2.55;1.40;;;30.60;38.30;;;;;;4994130;28;20026;-81
2022/07/12 12:43:35;;;;;;;3.45;1.88;;;30.80;38.10;;;;;;4992890;28;20061;-80
2022/07/12 12:46:01;;;;;;;2.17;1.25;;;30.80;38.00;;;;;;4992674;28;20109;-83
2022/07/12 12:48:31;;;;;;;2.25;1.30;;;30.70;37.50;;;;;;4992399;28;20473;-82
2022/07/12 12:51:05;;;;;;;1.98;1.13;;;30.90;37.60;;;;;;4999760;28;20041;-76
2022/07/12 12:53:33;;;;;;;3.15;1.30;;;31.00;37.40;;;;;;4993789;28;20027;-83
2022/07/12 12:55:59;;;;;;;2.75;1.20;;;31.20;38.10;;;;;;4992557;28;20030;-78
2022/07/12 12:58:25;;;;;;;9.95;2.60;;;31.50;38.00;;;;;;4992322;28;20189;-80
2022/07/12 13:00:56;;;;;;;1.88;1.10;;;31.50;36.70;;;;;;4993668;28;20026;-78
2022/07/12 13:03:25;;;;;;;1.70;1.10;;;31.30;37.20;;;;;;4993800;28;20491;-82